• Join FlightAware (Why Join?)
  • Login
  • US Flag 
08:41AM EDT


 

Airport Tracker/Info


-or-


 

Live Flight TrackerFlight Track Log ✈ AAL2007 ✈ 27-Apr-2013 ✈ KORD - KAUS

Flight Track Log - Related Links

Times and Time Zones

All times are in EDT time to prevent confusion due to time zone crossing. See the AAL2007 flight status page for this flight to view local times or setup timezone preferences in your user account.

Time Position Orientation Groundspeed Altitude Reporting Facility
EDT Latitude Longitude Course Direction KTS MPH feet Rate Location/Type
06:09PM 41.9333 -87.9333 254° West 192 221 2,700  Level Chicago TRACON
06:10PM 41.8833 -87.9833 217° Southwest 246 283 4,500 1,140 Climbing Chicago TRACON
06:11PM 41.9000 -88.2106 270° West  Level FlightAware Approximate
06:11PM 41.8333 -88.0500 225° Southwest 268 308 4,900  Level Chicago TRACON
06:12PM 41.8679 -88.3554 242° Southwest  Level FlightAware Approximate
06:12PM 41.8333 -88.1500 270° West 277 319 8,000  Level Chicago TRACON
06:13PM 41.8300 -88.4987 254° West  Level FlightAware Approximate
06:13PM 41.8536 -88.2547 285° West 303 349 11,200  Level Chicago Center
06:14PM 41.7976 -88.6452 254° West  Level FlightAware Approximate
06:14PM 41.8492 -88.3647 267° West 302 348 14,000  Level Chicago Center
06:15PM 41.8403 -88.4806 264° West 314 361 16,200 2,100 Climbing Chicago Center
06:16PM 41.8011 -88.6308 251° West 360 414 18,400 2,040 Climbing Chicago Center
06:17PM 41.7711 -88.7625 253° West 373 429 20,500 1,920 Climbing Chicago Center
06:18PM 41.7400 -88.8978 253° West 381 438 22,400 2,040 Climbing Chicago Center
06:19PM 41.7078 -89.0381 253° West 392 451 24,700 1,680 Climbing Chicago Center
06:20PM 41.6750 -89.1806 253° West 401 461 25,900 1,380 Climbing Chicago Center
06:21PM 41.6386 -89.3300 252° West 413 475 27,600 1,620 Climbing Chicago Center
06:22PM 41.5956 -89.5131 253° West 426 490 29,300 1,740 Climbing Chicago Center
06:23PM 41.5581 -89.6708 252° West 439 505 31,200 1,560 Climbing Chicago Center
06:24PM 41.5222 -89.8228 253° West 434 499 32,600 1,200 Climbing Chicago Center
06:25PM 41.4861 -89.9728 252° West 429 494 33,800 660 Climbing Chicago Center
06:26PM 41.4503 -90.1219 252° West 425 489 34,000 60 Climbing Chicago Center
06:27PM 41.4139 -90.2692 252° West 422 486 34,000  Level Chicago Center
06:28PM 41.3775 -90.4175 252° West 423 487 34,000  Level Chicago Center
06:29PM 41.3339 -90.5953 252° West 423 487 34,000  Level Chicago Center
06:30PM 41.2678 -90.7311 237° Southwest 431 496 34,000  Level Chicago Center
06:31PM 41.1950 -90.8544 232° Southwest 427 491 34,000  Level Chicago Center
06:32PM 41.1219 -90.9772 232° Southwest 427 491 34,000  Level Chicago Center
06:33PM 41.0483 -91.1008 232° Southwest 429 494 34,000  Level Chicago Center
06:34PM 40.9736 -91.2250 231° Southwest 430 495 34,000  Level Chicago Center
06:35PM 40.8917 -91.3600 231° Southwest 428 493 34,000  Level Chicago Center
06:36PM 40.8189 -91.4825 232° Southwest 428 493 34,000  Level Chicago Center
06:37PM 40.7450 -91.6039 231° Southwest 427 491 34,000  Level Chicago Center
06:38PM 40.6717 -91.7258 232° Southwest 427 491 34,000  Level Chicago Center
06:39PM 40.5961 -91.8458 230° Southwest 427 491 34,000  Level Kansas City Center
06:40PM 40.5244 -91.9647 232° Southwest 421 484 34,000  Level Kansas City Center
06:41PM 40.4531 -92.0808 231° Southwest 413 475 34,000  Level Kansas City Center
06:43PM 40.3669 -92.2197 231° Southwest 412 474 34,000  Level Kansas City Center
06:44PM 40.2950 -92.3369 231° Southwest 412 474 34,000  Level Kansas City Center
06:45PM 40.2206 -92.4533 230° Southwest 414 476 34,000  Level Kansas City Center
06:46PM 40.1497 -92.5683 231° Southwest 420 483 34,000  Level Kansas City Center
06:47PM 40.0544 -92.6767 221° Southwest 422 486 34,000  Level Kansas City Center
06:48PM 39.9617 -92.7739 219° Southwest 428 493 34,000  Level Kansas City Center
06:49PM 39.8686 -92.8708 219° Southwest 429 494 34,000  Level Kansas City Center
06:50PM 39.7764 -92.9694 219° Southwest 430 495 34,000  Level Kansas City Center
06:51PM 39.6828 -93.0647 218° Southwest 430 495 34,000  Level Kansas City Center
06:52PM 39.5697 -93.1797 218° Southwest 432 497 34,000  Level Kansas City Center
06:53PM 39.4758 -93.2761 218° Southwest 433 498 34,000  Level Kansas City Center
06:54PM 39.3839 -93.3728 219° Southwest 431 496 34,000  Level Kansas City Center
06:55PM 39.2894 -93.4700 219° Southwest 433 498 34,000  Level Kansas City Center
06:56PM 39.1936 -93.5667 218° Southwest 432 497 34,000  Level Kansas City Center
06:57PM 39.0919 -93.6728 219° Southwest 428 493 34,000  Level Kansas City Center
06:58PM 39.0022 -93.7628 218° Southwest 427 491 34,000  Level Kansas City Center
06:59PM 38.8972 -93.8694 218° Southwest 429 494 34,000  Level Kansas City Center
07:00PM 38.8081 -93.9608 219° Southwest 428 493 34,000  Level Kansas City Center
07:01PM 38.7167 -94.0506 217° Southwest 430 495 34,000  Level Kansas City Center
07:02PM 38.6131 -94.1553 218° Southwest 425 489 34,000  Level Kansas City Center
07:03PM 38.5242 -94.2428 218° Southwest 422 486 34,000  Level Kansas City Center
07:04PM 38.4194 -94.3456 218° Southwest 423 487 34,000  Level Kansas City Center
07:05PM 38.3308 -94.4322 218° Southwest 420 483 34,000  Level Kansas City Center
07:06PM 38.2389 -94.5147 215° Southwest 421 484 34,000  Level Kansas City Center
07:07PM 38.1189 -94.5858 205° Southwest 433 498 34,000  Level Kansas City Center
07:08PM 38.0172 -94.6522 207° Southwest 427 491 34,000  Level Kansas City Center
07:09PM 37.8983 -94.7275 207° Southwest 427 491 34,000  Level Kansas City Center
07:10PM 37.7886 -94.7697 197° South 430 495 34,000  Level Kansas City Center
07:11PM 37.6800 -94.8189 200° South 430 495 34,000  Level Kansas City Center
07:12PM 37.5683 -94.8653 198° South 429 494 34,000  Level Kansas City Center
07:13PM 37.4333 -94.9244 199° South 428 493 34,000  Level Kansas City Center
07:14PM 37.3214 -94.9739 199° South 425 489 34,000  Level Kansas City Center
07:15PM 37.2081 -95.0228 199° South 428 493 34,000  Level Kansas City Center
07:16PM 37.0956 -95.0731 200° South 428 493 34,000  Level Kansas City Center
07:17PM 36.9836 -95.1211 199° South 426 490 34,000  Level Kansas City Center
07:18PM 36.8714 -95.1692 199° South 425 489 34,000  Level Kansas City Center
07:19PM 36.7603 -95.2175 199° South 423 487 34,000  Level Kansas City Center
07:20PM 36.6481 -95.2661 199° South 424 488 34,000  Level Kansas City Center
07:21PM 36.5281 -95.3172 199° South 424 488 34,000  Level Kansas City Center
07:22PM 36.4150 -95.3647 199° South 426 490 34,000  Level Kansas City Center
07:23PM 36.3036 -95.4094 198° South 425 489 34,000  Level Kansas City Center
07:25PM 36.1969 -95.4575 200° South 417 480 34,000  Level Kansas City Center
07:26PM 36.0889 -95.5039 199° South 412 474 34,000  Level Kansas City Center
07:27PM 35.9772 -95.5506 199° South 412 474 34,000  Level Kansas City Center
07:28PM 35.8692 -95.5958 199° South 411 473 34,000  Level Kansas City Center
07:29PM 35.7400 -95.6497 199° South 408 470 34,000  Level Kansas City Center
07:30PM 35.6311 -95.6953 199° South 411 473 34,000  Level Kansas City Center
07:31PM 35.5244 -95.7431 200° South 417 480 34,000  Level Fort Worth Center
07:32PM 35.4186 -95.7883 199° South 412 474 34,000  Level Fort Worth Center
07:33PM 35.3128 -95.8311 198° South 407 468 34,000  Level Fort Worth Center
07:34PM 35.2278 -95.8683 200° South 407 468 34,000  Level Fort Worth Center
07:35PM 35.0969 -95.9164 197° South 402 463 34,000  Level Fort Worth Center
07:36PM 34.9972 -95.9561 198° South 397 457 34,000  Level Fort Worth Center
07:37PM 34.8914 -96.0011 199° South 397 457 34,000  Level Fort Worth Center
07:38PM 34.7878 -96.0431 198° South 397 457 34,000  Level Fort Worth Center
07:39PM 34.6839 -96.0853 198° South 402 463 34,000  Level Fort Worth Center
07:40PM 34.5800 -96.1297 199° South 402 463 34,000  Level Fort Worth Center
07:41PM 34.4761 -96.1717 198° South 402 463 34,000  Level Fort Worth Center
07:42PM 34.3681 -96.2158 199° South 402 463 34,000  Level Fort Worth Center
07:43PM 34.2639 -96.2575 198° South 402 463 34,000  Level Fort Worth Center
07:44PM 34.1622 -96.3017 200° South 397 457 34,000  Level Fort Worth Center
07:45PM 34.0686 -96.3378 198° South 384 442 34,000  Level Fort Worth Center
07:46PM 33.9644 -96.3767 197° South 377 434 34,000  Level Fort Worth Center
07:47PM 33.8628 -96.4181 199° South 388 447 34,000  Level Fort Worth Center
07:48PM 33.7628 -96.4592 199° South 388 447 34,000  Level Fort Worth Center
07:49PM 33.6628 -96.4975 198° South 381 438 34,000  Level Fort Worth Center
07:50PM 33.5608 -96.5386 199° South 387 445 34,000  Level Fort Worth Center
07:51PM 33.4611 -96.5769 198° South 380 437 34,000  Level Fort Worth Center
07:52PM 33.3589 -96.6150 197° South 380 437 34,000  Level Fort Worth Center
07:53PM 33.2694 -96.6506 198° South 386 444 34,000  Level Fort Worth Center
07:54PM 33.1631 -96.6864 196° South 386 444 34,000  Level Fort Worth Center
07:55PM 33.0547 -96.7119 191° South 386 444 34,000  Level Fort Worth Center
07:56PM 32.9506 -96.7400 193° South 391 450 34,000  Level Fort Worth Center
07:57PM 32.8422 -96.7731 194° South 391 450 34,000 -360 Level Fort Worth Center
07:58PM 32.7256 -96.8033 192° South 396 456 33,300 -780 Descending Fort Worth Center
07:59PM 32.6169 -96.8314 192° South 396 456 32,500 -840 Descending Fort Worth Center
08:00PM 32.5044 -96.8642 194° South 396 456 31,700 -840 Descending Fort Worth Center
08:01PM 32.3939 -96.8942 193° South 401 461 30,900 -840 Descending Fort Worth Center
08:02PM 32.2856 -96.9219 192° South 406 467 30,100 -840 Descending Fort Worth Center
08:03PM 32.1728 -96.9519 193° South 415 478 29,300 -840 Descending Fort Worth Center
08:05PM 31.9417 -97.0158 193° South 402 463 27,600 -840 Descending Houston Center
08:06PM 31.8319 -97.0456 193° South 401 461 26,800 -840 Descending Houston Center
08:07PM 31.7239 -97.0731 192° South 393 452 26,000 -840 Descending Houston Center
08:08PM 31.6161 -97.1022 193° South 392 451 25,100 -840 Descending Houston Center
08:09PM 31.5100 -97.1300 193° South 387 445 24,300 -840 Descending Houston Center
08:10PM 31.4050 -97.1589 193° South 386 444 23,500 -840 Descending Houston Center
08:11PM 31.2967 -97.1856 192° South 390 449 22,700 -900 Descending Houston Center
08:12PM 31.1928 -97.2153 194° South 383 441 21,700 -1,620 Descending Houston Center
08:13PM 31.0942 -97.2564 200° South 375 432 19,500 -2,400 Descending Houston Center
08:14PM 30.9844 -97.2989 198° South 358 412 16,800 -2,460 Descending Houston Center
08:15PM 30.8936 -97.3331 198° South 356 410 14,500 -1,860 Descending Houston Center
08:16PM 30.8061 -97.3678 199° South 335 386 13,100 -1,680 Descending Houston Center
08:17PM 30.7336 -97.4142 209° Southwest 299 344 11,100 -1,860 Descending Houston Center
08:18PM 30.6569 -97.4600 207° Southwest 304 350 9,400 -1,620 Descending Houston Center
08:19PM 30.5839 -97.5047 208° Southwest 297 342 7,900 -1,440 Descending Houston Center
08:20PM 30.5117 -97.5475 207° Southwest 291 335 6,500 -1,380 Descending Houston Center
08:21PM 30.4433 -97.5900 208° Southwest 281 323 5,100 -1,380 Descending Houston Center